Time;durP1;ratioP1;P1;durP2;ratioP2;P2;SDS_P1;SDS_P2;PMS_P1;PMS_P2;Temp;Humidity;BMP_temperature;BMP_pressure;BME280_temperature;BME280_humidity;BME280_pressure;Samples;Min_cycle;Max_cycle;Signal;HPM_P1;HPM_P2
2021/04/24 00:02:01;;;;;;;5.80;2.72;;;10.10;58.90;;;;;;5091764;28;20519;-78
2021/04/24 00:04:28;;;;;;;8.05;3.15;;;10.10;57.70;;;;;;5091501;28;20084;-78
2021/04/24 00:06:54;;;;;;;7.97;2.90;;;10.00;58.60;;;;;;5091808;28;20604;-78
2021/04/24 00:09:21;;;;;;;7.50;2.97;;;9.90;59.20;;;;;;5092432;28;20063;-79
2021/04/24 00:11:49;;;;;;;7.70;2.85;;;9.90;60.00;;;;;;5091863;28;20076;-79
2021/04/24 00:14:16;;;;;;;6.80;2.92;;;9.90;60.30;;;;;;5091465;28;20127;-79
2021/04/24 00:16:43;;;;;;;6.40;2.70;;;9.80;60.40;;;;;;5091108;28;20123;-79
2021/04/24 00:19:09;;;;;;;7.60;3.33;;;9.80;60.50;;;;;;5091679;28;20075;-79
2021/04/24 00:21:36;;;;;;;6.40;2.97;;;9.80;60.60;;;;;;5091760;28;20087;-79
2021/04/24 00:24:04;;;;;;;7.50;3.13;;;9.90;59.70;;;;;;5091428;28;20082;-79
2021/04/24 00:26:30;;;;;;;10.15;3.30;;;9.70;59.70;;;;;;5091381;28;20130;-80
2021/04/24 00:28:59;;;;;;;7.07;3.22;;;9.60;61.10;;;;;;5091607;28;20487;-78
2021/04/24 00:31:25;;;;;;;7.03;3.20;;;9.40;61.20;;;;;;5091410;28;20083;-79
2021/04/24 00:33:52;;;;;;;7.53;3.30;;;9.50;61.90;;;;;;5091848;28;20126;-79
2021/04/24 00:36:19;;;;;;;7.22;3.63;;;9.50;62.30;;;;;;5091056;28;20082;-79
2021/04/24 00:38:45;;;;;;;6.30;3.35;;;9.50;62.40;;;;;;5091228;28;20565;-79
2021/04/24 00:41:12;;;;;;;6.43;3.40;;;9.50;62.60;;;;;;5091405;28;20341;-78
2021/04/24 00:43:39;;;;;;;5.80;3.03;;;9.50;62.70;;;;;;5091424;28;20047;-78
2021/04/24 00:46:10;;;;;;;10.05;3.70;;;9.40;63.20;;;;;;5090874;28;20127;-79
2021/04/24 00:48:37;;;;;;;7.05;3.15;;;9.40;63.20;;;;;;5091441;28;20129;-80
2021/04/24 00:51:05;;;;;;;6.82;3.38;;;9.40;63.50;;;;;;5091218;28;20130;-79
2021/04/24 00:53:32;;;;;;;6.18;2.90;;;9.40;63.30;;;;;;5090878;28;20508;-79
2021/04/24 00:55:59;;;;;;;8.15;3.60;;;9.40;63.40;;;;;;5090710;28;20577;-79
2021/04/24 00:58:27;;;;;;;10.88;3.65;;;9.40;63.60;;;;;;5090979;28;20079;-79
2021/04/24 01:00:55;;;;;;;8.23;3.03;;;9.40;63.40;;;;;;5091018;28;20125;-79
2021/04/24 01:03:23;;;;;;;5.90;3.13;;;9.30;64.00;;;;;;5090825;28;20087;-78
2021/04/24 01:05:50;;;;;;;8.85;3.38;;;9.20;63.60;;;;;;5090411;28;20100;-79
2021/04/24 01:08:16;;;;;;;7.32;3.67;;;9.20;62.70;;;;;;5091023;28;20076;-79
2021/04/24 01:10:44;;;;;;;11.05;3.90;;;9.00;63.70;;;;;;5090250;28;20577;-79
2021/04/24 01:13:16;;;;;;;6.93;3.10;;;8.90;64.80;;;;;;5094594;28;20055;-78
2021/04/24 01:15:43;;;;;;;8.25;3.53;;;8.90;65.70;;;;;;5101900;28;20374;-77
2021/04/24 01:18:11;;;;;;;6.78;3.80;;;8.90;65.60;;;;;;5101610;28;20083;-81
2021/04/24 01:20:40;;;;;;;9.40;4.47;;;8.90;65.30;;;;;;5102656;28;20043;-78
2021/04/24 01:23:09;;;;;;;7.00;3.80;;;8.90;65.10;;;;;;5096522;28;20107;-80
2021/04/24 01:25:39;;;;;;;10.63;4.45;;;8.80;65.30;;;;;;5105827;28;20516;-81
2021/04/24 01:28:08;;;;;;;8.90;4.20;;;8.80;65.40;;;;;;5092736;28;20084;-79
2021/04/24 01:30:37;;;;;;;7.63;3.85;;;8.60;65.40;;;;;;5093375;28;20661;-79
2021/04/24 01:33:05;;;;;;;7.45;3.47;;;8.50;67.00;;;;;;5093227;28;20082;-79
2021/04/24 01:35:33;;;;;;;6.05;3.55;;;8.40;67.40;;;;;;5093435;28;20139;-80
2021/04/24 01:38:01;;;;;;;7.68;3.75;;;8.50;68.50;;;;;;5093729;28;20089;-79
2021/04/24 01:40:28;;;;;;;8.95;3.63;;;8.50;68.10;;;;;;5093389;28;20072;-80
2021/04/24 01:42:55;;;;;;;9.30;4.00;;;8.40;68.80;;;;;;5093566;28;20136;-80
2021/04/24 01:45:24;;;;;;;9.13;3.63;;;8.50;69.30;;;;;;5093323;28;20055;-80
2021/04/24 01:47:51;;;;;;;9.63;4.00;;;8.40;70.00;;;;;;5093711;28;20510;-79
2021/04/24 01:50:21;;;;;;;7.22;3.83;;;8.40;70.10;;;;;;5093517;28;20064;-79
2021/04/24 01:52:52;;;;;;;7.35;3.60;;;8.40;69.30;;;;;;5093725;28;20458;-78
2021/04/24 01:55:21;;;;;;;8.10;3.30;;;8.30;68.60;;;;;;5093024;28;20512;-78
2021/04/24 01:57:51;;;;;;;9.73;3.95;;;8.30;70.10;;;;;;5093475;28;20072;-78
2021/04/24 02:00:23;;;;;;;8.57;3.80;;;8.20;71.20;;;;;;5093271;28;20505;-78
2021/04/24 02:02:50;;;;;;;7.90;4.00;;;8.20;71.90;;;;;;5093653;28;20076;-80
2021/04/24 02:05:17;;;;;;;7.93;3.72;;;8.10;72.30;;;;;;5093360;28;20080;-79
2021/04/24 02:07:57;;;;;;;8.98;4.25;;;8.30;71.90;;;;;;5093498;28;20083;-79
2021/04/24 02:10:25;;;;;;;7.65;4.07;;;8.20;72.10;;;;;;5093107;28;20135;-79
2021/04/24 02:12:54;;;;;;;11.52;4.47;;;8.20;72.50;;;;;;5093066;28;20083;-78
2021/04/24 02:15:21;;;;;;;9.70;4.28;;;8.10;71.70;;;;;;5092939;28;20512;-78
2021/04/24 02:17:48;;;;;;;9.23;3.97;;;8.20;71.60;;;;;;5093168;28;20090;-78
2021/04/24 02:20:16;;;;;;;7.97;3.92;;;8.10;72.00;;;;;;5092939;28;20098;-78
2021/04/24 02:22:43;;;;;;;9.30;4.20;;;8.00;72.20;;;;;;5093097;28;20071;-79
2021/04/24 02:25:14;;;;;;;8.13;4.07;;;7.90;72.00;;;;;;5092518;28;20123;-79
2021/04/24 02:27:41;;;;;;;7.10;3.75;;;7.90;73.00;;;;;;5093116;28;20468;-79
2021/04/24 02:30:14;;;;;;;8.80;4.00;;;7.90;74.00;;;;;;5093149;28;20131;-81
2021/04/24 02:32:41;;;;;;;7.30;4.00;;;7.70;74.70;;;;;;5092881;28;20091;-80
2021/04/24 02:35:10;;;;;;;8.75;3.95;;;7.80;73.30;;;;;;5092511;28;20484;-78
2021/04/24 02:37:38;;;;;;;9.98;4.07;;;7.70;74.20;;;;;;5093391;28;20496;-81
2021/04/24 02:40:10;;;;;;;24.77;11.30;;;7.70;75.00;;;;;;5094444;28;20131;-79
2021/04/24 02:42:36;;;;;;;13.63;6.82;;;7.60;75.40;;;;;;5097165;28;20127;-79
2021/04/24 02:45:09;;;;;;;21.65;10.43;;;7.60;75.50;;;;;;5096455;28;20492;-79
2021/04/24 02:47:36;;;;;;;9.93;4.65;;;7.60;76.40;;;;;;5097190;28;20083;-80
2021/04/24 02:50:07;;;;;;;12.35;5.80;;;7.60;76.40;;;;;;5100254;28;20575;-81
2021/04/24 02:52:34;;;;;;;7.72;4.38;;;7.60;75.70;;;;;;5107595;28;20418;-78
2021/04/24 02:55:00;;;;;;;9.45;4.82;;;7.50;76.70;;;;;;5107222;28;20090;-79
2021/04/24 02:57:27;;;;;;;9.00;4.32;;;7.50;76.30;;;;;;5096748;28;20091;-79
2021/04/24 02:59:54;;;;;;;8.60;4.00;;;7.50;77.00;;;;;;5096591;28;20135;-79
2021/04/24 03:02:22;;;;;;;7.90;4.03;;;7.40;77.40;;;;;;5095927;28;20052;-80
2021/04/24 03:04:48;;;;;;;9.50;4.57;;;7.30;77.30;;;;;;5095022;28;20044;-79
2021/04/24 03:07:15;;;;;;;8.93;4.20;;;7.50;77.60;;;;;;5094852;28;20541;-78
2021/04/24 03:09:42;;;;;;;10.25;4.80;;;7.40;78.00;;;;;;5094485;28;20484;-79
2021/04/24 03:12:09;;;;;;;7.18;3.67;;;7.40;77.90;;;;;;5094103;28;20079;-79
2021/04/24 03:14:35;;;;;;;8.15;4.07;;;7.40;78.10;;;;;;5095386;28;20071;-84
2021/04/24 03:17:02;;;;;;;8.80;4.07;;;7.30;77.30;;;;;;5101821;28;20406;-81
2021/04/24 03:19:30;;;;;;;9.93;4.07;;;7.20;77.20;;;;;;5098528;28;20529;-80
2021/04/24 03:21:56;;;;;;;7.47;4.10;;;7.30;77.10;;;;;;5093644;28;20490;-79
2021/04/24 03:24:23;;;;;;;9.65;4.32;;;6.90;77.10;;;;;;5094122;28;20095;-81
2021/04/24 03:26:50;;;;;;;10.32;4.30;;;7.00;77.80;;;;;;5109496;28;20048;-79
2021/04/24 03:29:16;;;;;;;6.95;4.00;;;6.90;78.90;;;;;;5093475;28;20516;-80
2021/04/24 03:31:43;;;;;;;8.45;4.22;;;6.80;79.30;;;;;;5093299;28;20080;-79
2021/04/24 03:34:10;;;;;;;8.60;3.90;;;6.70;79.70;;;;;;5092727;28;20056;-79
2021/04/24 03:36:37;;;;;;;8.13;4.25;;;6.60;81.60;;;;;;5093885;28;20048;-78
2021/04/24 03:39:05;;;;;;;8.40;4.13;;;6.60;82.60;;;;;;5093877;28;20093;-77
2021/04/24 03:41:32;;;;;;;8.45;4.35;;;6.70;82.30;;;;;;5093939;28;20097;-78
2021/04/24 03:44:01;;;;;;;8.43;4.15;;;6.70;82.30;;;;;;5093770;28;20044;-79
2021/04/24 03:46:28;;;;;;;7.80;4.15;;;6.70;83.10;;;;;;5093079;28;20051;-78
2021/04/24 03:48:54;;;;;;;9.02;4.65;;;6.60;82.30;;;;;;5093249;28;20493;-78
2021/04/24 03:51:21;;;;;;;7.20;3.88;;;6.70;82.30;;;;;;5092547;28;20139;-79
2021/04/24 03:53:49;;;;;;;8.02;4.38;;;6.60;82.00;;;;;;5092919;28;20481;-78
2021/04/24 03:56:15;;;;;;;9.02;3.97;;;6.80;81.40;;;;;;5092682;28;20158;-78
2021/04/24 03:58:42;;;;;;;9.05;3.78;;;6.60;81.50;;;;;;5093652;28;20443;-78
2021/04/24 04:01:09;;;;;;;9.85;4.45;;;6.60;81.60;;;;;;5093559;28;20103;-78
2021/04/24 04:03:35;;;;;;;7.70;4.28;;;6.50;82.10;;;;;;5095112;28;20051;-80
2021/04/24 04:06:02;;;;;;;7.20;3.92;;;6.50;82.50;;;;;;5095242;28;20143;-80
2021/04/24 04:08:29;;;;;;;8.13;4.15;;;6.40;82.90;;;;;;5095373;28;20127;-79
2021/04/24 04:10:56;;;;;;;8.43;4.00;;;6.40;83.10;;;;;;5095298;28;20056;-80
2021/04/24 04:13:23;;;;;;;8.68;4.18;;;6.40;82.60;;;;;;5094514;28;20047;-80
2021/04/24 04:15:50;;;;;;;8.95;4.30;;;6.30;82.70;;;;;;5094602;28;20048;-79
2021/04/24 04:18:19;;;;;;;8.77;4.10;;;6.20;84.30;;;;;;5095635;28;20083;-80
2021/04/24 04:20:48;;;;;;;9.70;4.40;;;6.20;85.00;;;;;;5095059;28;20109;-80
2021/04/24 04:23:15;;;;;;;8.73;4.13;;;6.10;85.50;;;;;;5094776;28;20079;-82
2021/04/24 04:25:44;;;;;;;10.27;4.50;;;6.20;84.70;;;;;;5095546;28;20127;-81
2021/04/24 04:28:13;;;;;;;8.48;4.38;;;6.10;85.80;;;;;;5093874;28;20551;-80
2021/04/24 04:30:41;;;;;;;8.98;4.68;;;6.10;86.90;;;;;;5095153;28;20126;-80
2021/04/24 04:33:09;;;;;;;8.70;4.25;;;6.10;86.00;;;;;;5094489;28;20078;-80
2021/04/24 04:35:37;;;;;;;8.80;4.13;;;6.10;85.90;;;;;;5094363;28;20585;-80
2021/04/24 04:38:05;;;;;;;8.32;4.13;;;6.10;86.50;;;;;;5094866;28;20083;-80
2021/04/24 04:40:32;;;;;;;9.90;4.25;;;6.20;87.20;;;;;;5095140;28;20143;-80
2021/04/24 04:42:59;;;;;;;9.43;4.28;;;6.20;87.00;;;;;;5094730;28;20130;-80
2021/04/24 04:45:27;;;;;;;9.88;4.53;;;6.20;87.60;;;;;;5094465;28;20075;-81
2021/04/24 04:47:54;;;;;;;8.63;4.13;;;6.30;87.30;;;;;;5094922;28;20075;-81
2021/04/24 04:50:26;;;;;;;8.65;4.20;;;6.30;87.00;;;;;;5094513;28;20173;-78
2021/04/24 04:52:53;;;;;;;8.93;4.10;;;6.30;86.00;;;;;;5094737;28;20079;-79
2021/04/24 04:55:20;;;;;;;9.88;4.10;;;6.40;86.70;;;;;;5094189;28;20098;-79
2021/04/24 04:57:47;;;;;;;10.45;4.53;;;6.40;85.50;;;;;;5093877;28;20573;-79
2021/04/24 05:00:17;;;;;;;9.35;4.82;;;6.50;84.00;;;;;;5094209;28;20490;-78
2021/04/24 05:02:45;;;;;;;8.98;4.40;;;6.40;84.10;;;;;;5094467;28;20079;-79
2021/04/24 05:05:15;;;;;;;8.23;4.30;;;6.40;85.40;;;;;;5094097;28;20528;-79
2021/04/24 05:07:42;;;;;;;9.07;4.22;;;6.30;86.50;;;;;;5094871;28;20074;-80
2021/04/24 05:10:11;;;;;;;10.35;4.70;;;6.40;87.20;;;;;;5099691;28;20098;-79
2021/04/24 05:12:37;;;;;;;8.65;4.57;;;6.50;87.60;;;;;;5086254;28;20498;-79
2021/04/24 05:15:06;;;;;;;12.88;5.22;;;6.60;87.60;;;;;;5083357;28;20476;-80
2021/04/24 05:17:33;;;;;;;9.80;5.18;;;6.60;87.40;;;;;;5077826;28;20087;-80
2021/04/24 05:20:01;;;;;;;9.88;5.57;;;6.80;87.20;;;;;;5093543;28;20084;-80
2021/04/24 05:22:27;;;;;;;10.55;4.78;;;6.70;86.50;;;;;;5095244;28;20071;-80
2021/04/24 05:24:56;;;;;;;8.82;4.43;;;6.90;85.40;;;;;;5077533;28;20113;-80
2021/04/24 05:27:23;;;;;;;9.10;4.32;;;6.80;85.10;;;;;;5076457;28;20071;-80
2021/04/24 05:29:49;;;;;;;8.65;4.97;;;6.90;85.50;;;;;;5073962;28;20137;-80
2021/04/24 05:32:16;;;;;;;11.98;5.40;;;6.80;85.50;;;;;;5079490;28;20044;-80
2021/04/24 05:34:43;;;;;;;9.10;4.75;;;6.90;84.30;;;;;;5095045;28;20131;-80
2021/04/24 05:37:11;;;;;;;10.18;4.97;;;7.00;84.10;;;;;;5094989;28;20143;-80
2021/04/24 05:39:37;;;;;;;10.07;5.03;;;6.90;84.00;;;;;;5092335;28;20131;-81
2021/04/24 05:42:05;;;;;;;8.40;4.75;;;6.70;84.60;;;;;;5095315;28;20192;-80
2021/04/24 05:44:32;;;;;;;9.85;4.85;;;6.80;85.50;;;;;;5080248;28;20052;-79
2021/04/24 05:46:59;;;;;;;9.25;4.82;;;6.90;85.80;;;;;;5074943;28;20041;-80
2021/04/24 05:49:26;;;;;;;12.25;4.75;;;6.90;85.60;;;;;;5103121;28;20122;-79
2021/04/24 05:51:53;;;;;;;9.00;4.93;;;6.90;85.50;;;;;;5092013;28;20172;-80
2021/04/24 05:54:21;;;;;;;9.65;5.38;;;7.00;85.70;;;;;;5107907;28;20044;-80
2021/04/24 05:56:48;;;;;;;9.85;5.25;;;7.10;85.20;;;;;;5091578;28;20425;-79
2021/04/24 05:59:15;;;;;;;10.00;5.13;;;7.10;84.30;;;;;;5110391;28;20173;-79
2021/04/24 06:01:41;;;;;;;10.40;4.85;;;7.10;83.70;;;;;;5094161;28;20414;-78
2021/04/24 06:04:08;;;;;;;8.80;5.05;;;7.10;84.50;;;;;;5093515;28;20078;-78
2021/04/24 06:06:35;;;;;;;9.00;4.70;;;7.00;85.20;;;;;;5092718;28;20459;-79
2021/04/24 06:09:02;;;;;;;8.90;5.03;;;6.90;86.00;;;;;;5090410;28;20040;-78
2021/04/24 06:11:29;;;;;;;9.13;5.10;;;7.10;85.70;;;;;;5081525;28;20128;-79
2021/04/24 06:13:56;;;;;;;9.10;5.18;;;7.20;85.00;;;;;;5073278;28;20078;-79
2021/04/24 06:16:23;;;;;;;12.60;5.03;;;7.20;83.60;;;;;;5085323;28;20103;-78
2021/04/24 06:18:49;;;;;;;9.85;5.15;;;7.20;83.70;;;;;;5094663;28;20136;-79
2021/04/24 06:21:19;;;;;;;10.40;4.95;;;7.30;84.20;;;;;;5102673;28;20044;-79
2021/04/24 06:23:45;;;;;;;10.05;4.95;;;7.30;84.80;;;;;;5099134;28;20052;-78
2021/04/24 06:26:17;;;;;;;9.73;5.63;;;7.50;84.90;;;;;;5099233;28;20047;-80
2021/04/24 06:28:45;;;;;;;8.82;4.65;;;7.60;84.20;;;;;;5079876;28;20535;-80
2021/04/24 06:31:12;;;;;;;10.55;5.18;;;7.60;83.80;;;;;;5098227;28;20098;-78
2021/04/24 06:33:39;;;;;;;10.43;5.28;;;7.70;83.10;;;;;;5090531;28;20475;-76
2021/04/24 06:36:07;;;;;;;12.00;5.60;;;7.60;82.70;;;;;;5086160;28;20127;-77
2021/04/24 06:38:36;;;;;;;10.02;5.45;;;7.80;82.60;;;;;;5076955;28;20080;-78
2021/04/24 06:41:03;;;;;;;12.90;6.13;;;7.90;83.30;;;;;;5076213;28;20478;-78
2021/04/24 06:43:30;;;;;;;9.90;5.78;;;7.90;81.70;;;;;;5080247;28;20097;-78
2021/04/24 06:45:57;;;;;;;11.23;5.55;;;8.00;80.60;;;;;;5085207;28;20256;-79
2021/04/24 06:48:25;;;;;;;9.90;5.25;;;8.10;80.90;;;;;;5093432;28;20078;-79
2021/04/24 06:50:52;;;;;;;11.05;5.95;;;8.20;81.40;;;;;;5086134;28;20128;-79
2021/04/24 06:53:19;;;;;;;10.70;5.72;;;8.20;79.30;;;;;;5090335;28;20044;-79
2021/04/24 06:55:45;;;;;;;11.45;5.35;;;8.20;79.20;;;;;;5109372;28;20130;-77
2021/04/24 06:58:12;;;;;;;11.13;5.15;;;8.30;79.90;;;;;;5079508;28;20076;-77
2021/04/24 07:00:39;;;;;;;11.35;5.75;;;8.50;80.40;;;;;;5102437;28;20063;-77
2021/04/24 07:03:06;;;;;;;10.40;5.25;;;8.50;80.10;;;;;;5106220;28;20043;-78
2021/04/24 07:05:33;;;;;;;13.00;5.65;;;8.70;78.80;;;;;;5103979;28;20082;-78
2021/04/24 07:08:00;;;;;;;8.73;5.20;;;8.80;78.90;;;;;;5109059;28;20040;-78
2021/04/24 07:10:26;;;;;;;10.35;5.55;;;8.90;77.80;;;;;;5110184;28;20139;-78
2021/04/24 07:12:53;;;;;;;12.52;5.60;;;9.00;77.90;;;;;;5097819;28;20131;-77
2021/04/24 07:15:20;;;;;;;10.15;5.35;;;9.10;78.30;;;;;;5091480;28;20139;-77
2021/04/24 07:17:47;;;;;;;9.68;5.70;;;9.10;78.40;;;;;;5092650;28;20048;-78
2021/04/24 07:20:18;;;;;;;11.45;5.93;;;9.30;78.10;;;;;;5097549;28;20047;-83
2021/04/24 07:22:45;;;;;;;12.38;5.90;;;9.40;77.50;;;;;;5058936;28;20052;-83
2021/04/24 07:25:16;;;;;;;9.55;5.00;;;9.50;77.20;;;;;;5087460;28;20047;-82
2021/04/24 07:27:43;;;;;;;8.82;5.50;;;9.60;77.40;;;;;;5110902;28;20052;-83
2021/04/24 07:30:14;;;;;;;10.00;5.10;;;9.70;77.90;;;;;;5087611;28;20490;-83
2021/04/24 07:32:41;;;;;;;10.15;5.65;;;9.70;76.90;;;;;;5095117;28;20087;-81
2021/04/24 07:35:10;;;;;;;10.15;5.88;;;9.90;76.80;;;;;;5094271;28;20040;-81
2021/04/24 07:37:38;;;;;;;8.80;5.20;;;9.90;76.30;;;;;;5082974;28;20049;-80
2021/04/24 07:40:06;;;;;;;9.32;5.40;;;10.00;77.30;;;;;;5073760;28;20072;-79
2021/04/24 07:42:33;;;;;;;8.90;5.53;;;10.10;76.60;;;;;;5078936;28;20064;-79
2021/04/24 07:45:01;;;;;;;11.38;5.80;;;10.20;76.40;;;;;;5081475;28;20123;-79
2021/04/24 07:47:28;;;;;;;10.23;5.78;;;10.30;76.00;;;;;;5089652;28;20048;-78
2021/04/24 07:49:55;;;;;;;11.23;5.90;;;10.30;75.20;;;;;;5089143;28;20048;-77
2021/04/24 07:52:22;;;;;;;7.75;4.97;;;10.40;75.70;;;;;;5078201;28;20040;-78
2021/04/24 07:54:49;;;;;;;11.48;5.57;;;10.50;76.10;;;;;;5078616;28;20119;-79
2021/04/24 07:57:17;;;;;;;10.82;5.20;;;10.60;73.80;;;;;;5079205;28;20116;-77
2021/04/24 07:59:45;;;;;;;9.88;5.15;;;10.60;73.20;;;;;;5079754;28;20053;-79
2021/04/24 08:02:13;;;;;;;10.05;5.10;;;10.60;73.10;;;;;;5076063;28;20083;-80
2021/04/24 08:04:40;;;;;;;9.48;5.15;;;10.80;73.80;;;;;;5083600;28;20057;-79
2021/04/24 08:07:10;;;;;;;11.63;5.68;;;10.90;73.40;;;;;;5086922;28;20064;-79
2021/04/24 08:09:37;;;;;;;11.18;5.60;;;11.00;72.20;;;;;;5091576;28;20383;-78
2021/04/24 08:12:05;;;;;;;11.25;5.32;;;11.10;72.40;;;;;;5100630;28;20079;-78
2021/04/24 08:14:32;;;;;;;9.27;5.60;;;11.10;72.60;;;;;;5089088;28;20049;-79
2021/04/24 08:16:59;;;;;;;8.63;5.35;;;11.20;71.00;;;;;;5090866;28;20086;-79
2021/04/24 08:19:26;;;;;;;9.73;4.82;;;11.30;70.80;;;;;;5106353;28;20489;-78
2021/04/24 08:21:54;;;;;;;9.82;5.50;;;11.30;70.30;;;;;;5093793;28;20094;-79
2021/04/24 08:24:21;;;;;;;9.82;4.82;;;11.40;69.10;;;;;;5105370;28;20485;-79
2021/04/24 08:26:47;;;;;;;9.02;4.65;;;11.50;68.60;;;;;;5092314;28;20086;-78
2021/04/24 08:29:15;;;;;;;11.68;5.53;;;11.60;67.70;;;;;;5089646;28;20055;-80
2021/04/24 08:31:43;;;;;;;9.68;5.30;;;11.60;66.60;;;;;;5093694;28;20130;-79
2021/04/24 08:34:11;;;;;;;11.27;5.25;;;11.70;66.50;;;;;;5087809;28;20040;-78
2021/04/24 08:36:39;;;;;;;10.38;5.18;;;11.80;64.50;;;;;;5099548;28;20198;-79
2021/04/24 08:39:08;;;;;;;9.77;5.85;;;11.90;64.00;;;;;;5099115;28;20509;-79
2021/04/24 08:41:35;;;;;;;11.25;6.07;;;12.00;62.90;;;;;;5101592;28;20078;-78
2021/04/24 08:44:01;;;;;;;9.85;4.78;;;12.00;62.80;;;;;;5093669;28;20055;-79
2021/04/24 08:46:29;;;;;;;10.43;5.85;;;12.10;62.40;;;;;;5074254;28;20505;-79
2021/04/24 08:48:58;;;;;;;10.77;5.43;;;12.20;61.60;;;;;;5074170;28;20128;-79
2021/04/24 08:51:28;;;;;;;10.82;5.80;;;12.20;61.30;;;;;;5074378;28;20494;-80
2021/04/24 08:53:56;;;;;;;9.88;5.38;;;12.30;60.60;;;;;;5081813;28;20048;-79
2021/04/24 08:56:24;;;;;;;12.13;4.97;;;12.40;60.60;;;;;;5094004;28;20059;-78
2021/04/24 08:58:52;;;;;;;10.95;4.90;;;12.50;59.80;;;;;;5093764;28;20040;-79
2021/04/24 09:01:20;;;;;;;10.48;5.32;;;12.60;59.70;;;;;;5093675;28;20135;-80
2021/04/24 09:03:48;;;;;;;10.02;5.38;;;12.60;59.80;;;;;;5092389;28;20066;-79
2021/04/24 09:06:19;;;;;;;9.10;5.63;;;12.70;58.70;;;;;;5093842;28;20131;-79
2021/04/24 09:08:55;;;;;;;8.27;5.40;;;12.80;58.70;;;;;;5093753;28;20155;-79
2021/04/24 09:11:22;;;;;;;12.20;6.88;;;13.00;58.10;;;;;;5093991;28;20078;-78
2021/04/24 09:14:00;;;;;;;12.40;6.07;;;13.00;57.60;;;;;;5093453;28;20127;-78
2021/04/24 09:16:28;;;;;;;9.65;5.85;;;13.10;57.10;;;;;;5093750;28;20113;-78
2021/04/24 09:18:56;;;;;;;9.27;5.32;;;13.20;56.30;;;;;;5094142;28;20071;-79
2021/04/24 09:21:26;;;;;;;10.50;6.35;;;13.20;56.20;;;;;;5094093;28;20094;-78
2021/04/24 09:23:54;;;;;;;11.77;6.20;;;13.30;56.10;;;;;;5092150;28;20485;-79
2021/04/24 09:26:24;;;;;;;10.98;6.35;;;13.30;55.70;;;;;;5092724;28;20478;-79
2021/04/24 09:29:02;;;;;;;10.55;5.85;;;13.40;55.40;;;;;;5098116;28;20192;-76
2021/04/24 09:31:31;;;;;;;10.35;5.25;;;13.50;54.10;;;;;;5103844;28;20455;-77
2021/04/24 09:34:02;;;;;;;11.48;6.07;;;13.60;53.60;;;;;;5093499;28;20072;-79
2021/04/24 09:36:35;;;;;;;10.52;5.82;;;13.60;52.70;;;;;;5095472;28;20056;-80
2021/04/24 09:39:07;;;;;;;9.07;4.93;;;13.70;51.60;;;;;;5103267;28;20044;-78
2021/04/24 09:41:38;;;;;;;11.40;5.38;;;13.80;52.20;;;;;;5102625;28;20051;-79
2021/04/24 09:44:08;;;;;;;10.15;5.43;;;13.90;51.10;;;;;;5095680;28;20040;-86
2021/04/24 09:46:36;;;;;;;9.13;5.72;;;14.00;50.40;;;;;;5092305;28;20126;-78
2021/04/24 09:49:20;;;;;;;9.85;5.00;;;14.00;48.90;;;;;;5092374;28;20040;-80
2021/04/24 09:51:50;;;;;;;10.67;5.50;;;14.20;49.70;;;;;;5093919;28;20048;-78
2021/04/24 09:54:19;;;;;;;11.68;5.20;;;14.20;48.20;;;;;;5092739;28;20131;-79
2021/04/24 09:57:02;;;;;;;10.90;5.55;;;14.30;47.90;;;;;;5097709;28;20055;-79
2021/04/24 09:59:30;;;;;;;11.52;4.70;;;14.40;47.60;;;;;;5094543;28;20075;-78
2021/04/24 10:01:58;;;;;;;8.65;4.82;;;14.40;47.10;;;;;;5092845;28;20044;-78
2021/04/24 10:04:26;;;;;;;9.63;4.97;;;14.60;46.20;;;;;;5092644;28;20137;-78
2021/04/24 10:06:54;;;;;;;9.55;4.70;;;14.60;45.60;;;;;;5092734;28;20048;-78
2021/04/24 10:09:24;;;;;;;10.18;4.57;;;14.70;45.20;;;;;;5092855;28;20126;-78
2021/04/24 10:12:08;;;;;;;7.30;3.97;;;14.80;44.80;;;;;;5093303;28;20072;-79
2021/04/24 10:14:40;;;;;;;10.18;5.18;;;15.00;45.30;;;;;;5092480;28;20119;-77
2021/04/24 10:17:09;;;;;;;9.57;4.90;;;15.00;44.10;;;;;;5093223;28;20102;-79
2021/04/24 10:19:37;;;;;;;8.05;3.92;;;15.10;44.80;;;;;;5092702;28;20090;-80
2021/04/24 10:22:07;;;;;;;8.45;4.90;;;15.10;43.80;;;;;;5093695;28;20494;-80
2021/04/24 10:24:34;;;;;;;10.13;5.47;;;15.30;43.80;;;;;;5092809;28;20044;-79
2021/04/24 10:27:01;;;;;;;8.75;4.80;;;15.30;42.80;;;;;;5094484;28;20087;-80
2021/04/24 10:29:28;;;;;;;8.68;4.43;;;15.40;42.60;;;;;;5096944;28;20088;-78
2021/04/24 10:31:56;;;;;;;11.85;6.43;;;15.40;42.40;;;;;;5103465;28;20409;-80
2021/04/24 10:34:24;;;;;;;8.50;5.25;;;15.60;41.00;;;;;;5100439;28;20071;-79
2021/04/24 10:36:52;;;;;;;11.60;6.28;;;15.60;41.20;;;;;;5095583;28;20044;-81
2021/04/24 10:39:23;;;;;;;12.15;5.80;;;15.70;40.60;;;;;;5094750;28;20135;-80
2021/04/24 10:42:02;;;;;;;10.15;5.18;;;15.60;40.70;;;;;;5089550;28;20135;-81
2021/04/24 10:44:53;;;;;;;11.50;5.75;;;15.70;41.10;;;;;;5088389;28;20075;-80
2021/04/24 10:47:55;;;;;;;10.85;5.93;;;15.80;41.40;;;;;;5102512;28;20063;-77
2021/04/24 10:50:24;;;;;;;9.07;5.25;;;15.90;41.10;;;;;;5064066;28;20044;-79
2021/04/24 10:52:56;;;;;;;9.57;5.18;;;16.00;40.70;;;;;;5100826;28;20094;-79
2021/04/24 10:55:27;;;;;;;10.20;4.93;;;16.00;41.20;;;;;;5092114;28;20101;-81
2021/04/24 10:57:56;;;;;;;9.85;6.15;;;16.10;40.90;;;;;;5091271;28;20417;-80
2021/04/24 11:00:47;;;;;;;11.65;6.03;;;16.20;41.00;;;;;;5091706;28;20139;-78
2021/04/24 11:03:40;;;;;;;10.57;6.20;;;16.20;39.50;;;;;;5096381;28;20482;-79
2021/04/24 11:06:11;;;;;;;12.43;5.30;;;16.30;40.30;;;;;;5096648;28;20048;-79
2021/04/24 11:08:39;;;;;;;9.85;4.88;;;16.40;40.80;;;;;;5096757;28;20438;-78
2021/04/24 11:11:09;;;;;;;10.50;5.82;;;16.50;41.60;;;;;;5096677;28;20250;-80
2021/04/24 11:13:39;;;;;;;9.48;5.18;;;16.50;40.00;;;;;;5096457;28;20123;-78
2021/04/24 11:16:09;;;;;;;10.63;5.82;;;16.60;40.10;;;;;;5096399;28;20080;-79
2021/04/24 11:18:38;;;;;;;9.45;5.63;;;16.60;40.10;;;;;;5095737;28;20489;-78
2021/04/24 11:21:07;;;;;;;9.27;4.90;;;16.70;40.90;;;;;;5094846;28;20052;-78
2021/04/24 11:23:53;;;;;;;9.52;4.95;;;16.80;41.30;;;;;;5095962;28;20102;-78
2021/04/24 11:26:50;;;;;;;9.68;4.90;;;16.90;40.90;;;;;;5095362;28;20090;-79
2021/04/24 11:29:20;;;;;;;8.13;4.65;;;16.90;40.20;;;;;;5075368;28;20118;-79
2021/04/24 11:31:58;;;;;;;7.38;4.57;;;17.10;40.30;;;;;;5075583;28;20051;-79
2021/04/24 11:34:45;;;;;;;11.07;4.97;;;17.10;39.50;;;;;;5075720;28;20056;-78
2021/04/24 11:37:49;;;;;;;10.23;5.72;;;17.20;40.00;;;;;;5072704;28;20075;-78
2021/04/24 11:40:27;;;;;;;11.98;6.55;;;17.30;39.90;;;;;;5079076;28;20068;-79
2021/04/24 11:42:59;;;;;;;11.52;6.35;;;17.40;38.60;;;;;;5098167;28;20048;-79
2021/04/24 11:46:08;;;;;;;9.20;5.30;;;17.50;38.20;;;;;;5094839;28;20493;-79
2021/04/24 11:49:01;;;;;;;8.27;5.18;;;17.60;38.70;;;;;;5095484;28;20482;-78
2021/04/24 11:51:55;;;;;;;9.45;4.72;;;17.70;39.50;;;;;;5095195;28;20578;-79
2021/04/24 11:54:28;;;;;;;9.43;5.50;;;17.80;39.10;;;;;;5095371;28;20548;-79
2021/04/24 11:56:58;;;;;;;8.13;4.80;;;17.90;37.80;;;;;;5094784;28;20379;-79
2021/04/24 11:59:28;;;;;;;8.57;4.90;;;18.00;37.90;;;;;;5095083;28;20048;-78
2021/04/24 12:02:00;;;;;;;8.55;4.63;;;18.10;36.60;;;;;;5095139;28;20127;-78
2021/04/24 12:04:30;;;;;;;7.60;4.93;;;18.10;35.30;;;;;;5095468;28;20560;-78
2021/04/24 12:07:03;;;;;;;9.02;4.97;;;18.20;35.60;;;;;;5095336;28;20113;-79
2021/04/24 12:09:30;;;;;;;8.25;4.20;;;18.20;34.60;;;;;;5094149;28;20554;-78
2021/04/24 12:12:00;;;;;;;8.38;4.63;;;18.30;35.20;;;;;;5094096;28;20481;-78
2021/04/24 12:14:30;;;;;;;8.35;4.70;;;18.50;34.70;;;;;;5094870;28;20131;-82
2021/04/24 12:16:57;;;;;;;6.82;3.60;;;18.50;34.40;;;;;;5093550;28;20066;-80
2021/04/24 12:19:31;;;;;;;8.95;4.80;;;18.60;35.00;;;;;;5090278;28;20076;-82
2021/04/24 12:22:14;;;;;;;7.50;4.90;;;18.80;34.60;;;;;;5075080;28;20048;-84
2021/04/24 12:25:04;;;;;;;10.93;4.35;;;19.00;34.50;;;;;;5075010;28;20056;-82
2021/04/24 12:27:43;;;;;;;6.47;3.63;;;19.10;34.60;;;;;;5091303;28;20146;-76
2021/04/24 12:30:17;;;;;;;8.57;4.93;;;19.30;33.60;;;;;;5094525;28;20093;-83
2021/04/24 12:32:46;;;;;;;6.82;3.90;;;19.40;33.20;;;;;;5110069;28;20044;-80
2021/04/24 12:35:22;;;;;;;6.70;3.92;;;19.60;34.50;;;;;;5093903;28;20075;-80
2021/04/24 12:37:58;;;;;;;6.57;4.13;;;19.70;34.50;;;;;;5077182;28;20133;-78
2021/04/24 12:40:25;;;;;;;7.53;4.45;;;19.80;35.50;;;;;;5085345;28;20180;-80
2021/04/24 12:42:53;;;;;;;6.07;3.40;;;20.00;35.40;;;;;;5076169;28;20047;-79
2021/04/24 12:45:23;;;;;;;9.45;5.60;;;20.10;36.90;;;;;;5093164;28;20079;-77
2021/04/24 12:47:52;;;;;;;7.13;4.35;;;20.30;34.10;;;;;;5094155;28;20040;-79
2021/04/24 12:50:27;;;;;;;7.43;4.50;;;20.40;34.70;;;;;;5092383;28;20072;-76
2021/04/24 12:52:58;;;;;;;7.47;4.35;;;20.50;34.90;;;;;;5091166;28;20043;-79
2021/04/24 12:55:33;;;;;;;8.18;4.50;;;20.60;34.20;;;;;;5090587;28;20052;-79
2021/04/24 12:58:01;;;;;;;;;;;20.70;34.30;;;;;;5091148;28;20407;-79
2021/04/24 13:00:34;;;;;;;7.32;4.80;;;20.90;34.10;;;;;;5091185;28;20002;-78
2021/04/24 13:03:03;;;;;;;8.23;4.53;;;21.00;33.80;;;;;;5093101;28;20181;-77